Terminal Aerodrome Forecast
Issued by NWS Jackson, MS

Home | Current Version | Previous Version | Text Only | Print | Product List | Glossary On
Versions: 1 2 3 4 5 6 7 8 9 10 11 12 13
000
FTUS44 KJAN 271140
TAFMEI
TAF
KMEI 271140Z 2712/2812 04013KT P6SM SCT010 BKN250
     FM271600 04010KT P6SM SCT150
     FM280100 04009KT P6SM OVC100
     FM280800 06013KT P6SM BKN020 OVC035=

USA.gov is the U.S. government's official web portal to all federal, state and local government web resources and services.